Time;durP1;ratioP1;P1;durP2;ratioP2;P2;SDS_P1;SDS_P2;PMS_P1;PMS_P2;Temp;Humidity;BMP_temperature;BMP_pressure;BME280_temperature;BME280_humidity;BME280_pressure;Samples;Min_cycle;Max_cycle;Signal;HPM_P1;HPM_P2
2022/06/10 00:00:56;;;;;;;8.90;4.30;;;;;;;16.28;68.33;99012.09;105974;1274;25597;-82
2022/06/10 00:03:56;;;;;;;9.80;4.60;;;;;;;16.22;68.41;99013.52;106178;1274;22546;-82
2022/06/10 00:06:38;;;;;;;10.10;4.90;;;;;;;16.20;68.53;99018.07;106036;1274;22720;-88
2022/06/10 00:09:12;;;;;;;11.30;5.60;;;;;;;16.19;68.75;99021.96;105933;1273;25373;-80
2022/06/10 00:11:53;;;;;;;9.50;4.30;;;;;;;16.17;68.67;99021.60;106011;1274;22596;-78
2022/06/10 00:14:25;;;;;;;8.60;3.90;;;;;;;16.15;68.71;99019.59;106288;1274;22696;-81
2022/06/10 00:17:19;;;;;;;7.90;4.30;;;;;;;16.15;68.83;99023.95;106252;1274;22560;-80
2022/06/10 00:19:57;;;;;;;12.90;5.70;;;;;;;16.13;68.88;99018.71;106254;1273;22694;-81
2022/06/10 00:22:54;;;;;;;;;;;;;;;;;;;;;
2022/06/10 00:25:45;;;;;;;8.40;4.10;;;;;;;16.09;68.95;99028.77;106107;1274;25516;-80
2022/06/10 00:28:50;;;;;;;;;;;;;;;;;;;;;
2022/06/10 00:31:27;;;;;;;8.70;3.90;;;;;;;16.04;68.97;99032.34;106100;1274;25235;-78
2022/06/10 00:34:00;;;;;;;9.20;4.30;;;;;;;16.04;69.04;99033.14;106110;1274;22691;-81
2022/06/10 00:37:26;;;;;;;11.70;5.90;;;;;;;16.03;69.03;99034.77;106288;1273;22780;-79
2022/06/10 00:39:52;;;;;;;8.40;4.80;;;;;;;16.03;69.28;99035.52;106047;1274;25659;-83
2022/06/10 00:42:35;;;;;;;9.10;4.50;;;;;;;16.01;69.26;99038.56;106358;1274;25301;-81
2022/06/10 00:45:55;;;;;;;;;;;;;;;;;;;;;
2022/06/10 00:49:36;;;;;;;;;;;;;;;;;;;;;
2022/06/10 00:53:06;;;;;;;;;;;;;;;;;;;;;
2022/06/10 00:55:55;;;;;;;9.50;5.10;;;;;;;16.01;69.41;99056.52;105638;1281;25300;-80
2022/06/10 00:59:22;;;;;;;;;;;;;;;;;;;;;
2022/06/10 01:02:17;;;;;;;10.00;5.30;;;;;;;16.09;69.52;99066.02;105710;1281;22646;-85
2022/06/10 01:05:26;;;;;;;9.10;5.50;;;;;;;16.12;69.55;99070.94;105660;1281;23911;-83
2022/06/10 01:08:26;;;;;;;9.30;5.40;;;;;;;16.15;69.61;99074.44;105698;1281;22631;-83
2022/06/10 01:11:30;;;;;;;8.60;5.20;;;;;;;16.15;69.65;99078.35;105608;1281;22615;-85
2022/06/10 01:14:45;;;;;;;;;;;;;;;;;;;;;
2022/06/10 01:18:14;;;;;;;9.30;5.00;;;;;;;16.16;69.64;99079.71;105677;1282;25513;-82
2022/06/10 01:21:41;;;;;;;9.90;5.20;;;;;;;16.19;69.71;99073.33;104916;1288;24310;-86
2022/06/10 01:24:44;;;;;;;9.20;4.90;;;;;;;16.15;69.71;99077.42;105072;1287;22582;-83
2022/06/10 01:28:21;;;;;;;12.80;5.90;;;;;;;16.09;69.77;99079.12;104522;1288;23111;-79
2022/06/10 01:32:02;;;;;;;10.00;5.00;;;;;;;16.01;69.82;99084.50;105298;1281;25333;-81
2022/06/10 01:35:28;;;;;;;12.40;5.10;;;;;;;15.97;69.88;99089.77;105652;1281;22562;-80
2022/06/10 01:38:48;;;;;;;10.40;5.60;;;;;;;15.96;69.93;99098.25;105070;1287;24377;-84
2022/06/10 01:42:28;;;;;;;11.10;5.10;;;;;;;15.94;69.93;99095.40;105048;1287;25379;-82
2022/06/10 01:49:37;;;;;;;9.50;4.80;;;;;;;15.93;70.00;99105.02;104268;1294;24230;-81
2022/06/10 01:52:45;;;;;;;8.60;4.80;;;;;;;15.93;69.98;99109.33;104150;1294;25534;-84
2022/06/10 01:56:04;;;;;;;;;;;;;;;;;;;;;
2022/06/10 01:59:18;;;;;;;12.50;5.80;;;;;;;15.90;70.14;99117.65;104576;1290;22691;-83
2022/06/10 02:02:40;;;;;;;;;;;;;;;;;;;;;
2022/06/10 02:05:36;;;;;;;9.60;4.80;;;;;;;15.91;70.18;99132.13;104756;1290;22554;-85
2022/06/10 02:08:28;;;;;;;10.90;6.40;;;;;;;15.92;70.17;99136.75;104747;1290;22734;-84
2022/06/10 02:12:19;;;;;;;10.10;4.90;;;;;;;15.91;70.24;99138.02;104756;1290;22726;-83
2022/06/10 02:15:16;;;;;;;12.30;5.70;;;;;;;15.92;70.24;99143.05;104358;1291;25405;-79
2022/06/10 02:18:27;;;;;;;12.10;5.70;;;;;;;15.94;70.35;99143.37;104775;1290;22579;-80
2022/06/10 02:21:32;;;;;;;11.90;4.80;;;;;;;15.95;70.34;99140.92;103969;1296;24299;-77
2022/06/10 02:24:41;;;;;;;;;;;;;;;;;;;;;
2022/06/10 02:28:29;;;;;;;;;;;;;;;;;;;;;
2022/06/10 02:31:48;;;;;;;;;;;;;;;;;;;;;
2022/06/10 02:34:33;;;;;;;12.40;5.40;;;;;;;15.97;70.51;99144.55;104741;1290;23150;-86
2022/06/10 02:38:06;;;;;;;;;;;;;;;;;;;;;
2022/06/10 02:40:59;;;;;;;11.10;5.50;;;;;;;15.97;70.56;99150.30;104312;1294;22581;-79
2022/06/10 02:44:47;;;;;;;8.60;3.80;;;;;;;15.98;70.48;99153.27;104243;1294;25586;-77
2022/06/10 02:47:40;;;;;;;11.00;5.20;;;;;;;15.99;70.46;99160.33;103884;1300;22728;-82
2022/06/10 02:50:37;;;;;;;10.40;5.30;;;;;;;15.98;70.52;99161.70;103921;1300;24396;-79
2022/06/10 02:53:37;;;;;;;9.80;5.20;;;;;;;15.97;70.53;99163.02;104411;1297;22594;-80
2022/06/10 02:56:42;;;;;;;11.30;5.00;;;;;;;15.97;70.57;99167.48;103994;1296;24256;-83
2022/06/10 03:04:27;;;;;;;11.50;6.30;;;;;;;15.99;70.68;99173.27;104577;1291;22569;-89
2022/06/10 03:07:44;;;;;;;11.80;5.40;;;;;;;16.00;70.72;99178.92;104326;1294;22703;-81
2022/06/10 03:11:56;;;;;;;10.70;4.60;;;;;;;16.03;70.59;99184.39;104078;1295;24291;-84
2022/06/10 03:15:15;;;;;;;;;;;;;;;;;;;;;
2022/06/10 03:19:22;;;;;;;;;;;;;;;;;;;;;
2022/06/10 03:22:59;;;;;;;;;;;;;;;;;;;;;
2022/06/10 03:26:47;;;;;;;;;;;;;;;;;;;;;
2022/06/10 03:30:34;;;;;;;;;;;;;;;;;;;;;
2022/06/10 03:34:08;;;;;;;;;;;;;;;;;;;;;
2022/06/10 03:37:30;;;;;;;10.40;5.50;;;;;;;16.11;70.69;99217.55;104244;1294;22628;-83
2022/06/10 03:40:30;;;;;;;10.50;5.90;;;;;;;16.15;70.73;99223.48;103969;1297;24330;-81
2022/06/10 03:43:52;;;;;;;;;;;;;;;;;;;;;
2022/06/10 03:46:59;;;;;;;12.50;6.20;;;;;;;16.17;70.78;99235.87;104417;1291;25535;-82
2022/06/10 03:50:27;;;;;;;;;;;;;;;;;;;;;
2022/06/10 03:54:21;;;;;;;;;;;;;;;;;;;;;
2022/06/10 03:57:41;;;;;;;;;;;;;;;;;;;;;
2022/06/10 04:01:09;;;;;;;;;;;;;;;;;;;;;
2022/06/10 04:04:43;;;;;;;10.50;6.10;;;;;;;16.24;70.80;99254.98;104032;1300;22618;-82
2022/06/10 04:07:57;;;;;;;10.60;5.10;;;;;;;16.26;70.79;99254.48;104398;1294;25468;-84
2022/06/10 04:11:24;;;;;;;;;;;;;;;;;;;;;
2022/06/10 04:14:05;;;;;;;13.00;5.40;;;;;;;16.35;70.99;99268.70;104897;1288;22575;-85
2022/06/10 04:17:07;;;;;;;11.70;5.50;;;;;;;16.40;70.95;99275.59;104856;1290;22639;-84
2022/06/10 04:23:45;;;;;;;11.00;5.40;;;;;;;16.38;70.80;99283.48;104661;1288;25260;-82
2022/06/10 04:26:48;;;;;;;9.10;4.80;;;;;;;16.40;70.82;99282.21;104664;1288;22584;-84
2022/06/10 04:29:33;;;;;;;9.50;5.10;;;;;;;16.44;70.80;99284.14;104707;1288;22556;-81
2022/06/10 04:32:20;;;;;;;11.20;5.80;;;;;;;16.47;70.66;99284.75;104840;1288;22624;-86
2022/06/10 04:35:04;;;;;;;11.20;5.80;;;;;;;16.47;70.69;99289.13;105738;1277;23154;-84
2022/06/10 04:37:49;;;;;;;8.80;5.00;;;;;;;16.48;70.74;99291.38;106054;1274;24404;-83
2022/06/10 04:40:47;;;;;;;10.80;5.00;;;;;;;16.51;70.72;99297.56;105863;1276;22554;-82
2022/06/10 04:44:04;;;;;;;10.40;5.50;;;;;;;16.57;70.81;99302.96;105924;1274;22565;-83
2022/06/10 04:46:50;;;;;;;10.70;5.50;;;;;;;16.61;70.81;99311.59;105851;1274;26540;-81
2022/06/10 04:49:40;;;;;;;10.70;5.90;;;;;;;16.62;70.72;99314.73;105895;1274;25349;-82
2022/06/10 04:52:30;;;;;;;10.60;6.10;;;;;;;16.64;70.74;99317.54;105972;1274;25513;-82
2022/06/10 04:55:23;;;;;;;10.00;5.00;;;;;;;16.68;70.72;99319.02;105989;1275;22567;-83
2022/06/10 04:58:16;;;;;;;10.80;5.50;;;;;;;16.71;70.71;99320.00;106032;1274;22539;-82
2022/06/10 05:01:00;;;;;;;11.20;5.90;;;;;;;16.79;70.83;99321.93;105974;1274;25197;-82
2022/06/10 05:03:30;;;;;;;10.10;6.00;;;;;;;16.88;70.88;99325.27;105892;1274;22584;-79
2022/06/10 05:06:08;;;;;;;9.40;5.80;;;;;;;16.93;70.58;99329.42;105922;1274;25305;-81
2022/06/10 05:09:31;;;;;;;10.30;5.40;;;;;;;16.93;70.60;99333.45;106138;1274;22743;-82
2022/06/10 05:11:36;;;;;;;11.00;4.70;;;;;;;16.94;70.48;99337.94;105942;1274;22853;-82
2022/06/10 05:14:19;;;;;;;11.10;5.30;;;;;;;16.96;70.56;99336.16;105941;1275;24287;-81
2022/06/10 05:17:16;;;;;;;11.00;5.60;;;;;;;17.02;70.59;99341.19;105944;1274;24244;-81
2022/06/10 05:20:38;;;;;;;;;;;;;;;;;;;;;
2022/06/10 05:23:20;;;;;;;11.00;5.10;;;;;;;17.15;70.66;99343.75;105862;1275;24192;-82
2022/06/10 05:25:58;;;;;;;10.10;5.10;;;;;;;17.23;70.74;99351.45;105995;1274;25082;-84
2022/06/10 05:28:51;;;;;;;11.10;5.50;;;;;;;17.36;70.61;99351.05;106050;1274;24223;-81
2022/06/10 05:32:16;;;;;;;11.10;5.60;;;;;;;17.51;70.65;99359.02;105935;1274;22593;-85
2022/06/10 05:35:03;;;;;;;10.10;4.70;;;;;;;17.60;70.55;99363.40;106024;1274;25436;-82
2022/06/10 05:37:53;;;;;;;;;;;;;;;;;;;;;
2022/06/10 05:44:17;;;;;;;;;;;;;;;;;;;;;
2022/06/10 05:47:25;;;;;;;;;;;;;;;;;;;;;
2022/06/10 05:50:54;;;;;;;9.30;4.80;;;;;;;17.65;70.41;99380.86;105751;1279;24386;-82
2022/06/10 05:53:57;;;;;;;;;;;;;;;;;;;;;
2022/06/10 05:57:11;;;;;;;;;;;;;;;;;;;;;
2022/06/10 06:00:24;;;;;;;;;;;;;;;;;;;;;
2022/06/10 06:03:03;;;;;;;11.50;5.60;;;;;;;17.89;70.12;99401.30;105703;1282;25388;-81
2022/06/10 06:05:50;;;;;;;9.90;5.40;;;;;;;17.87;70.00;99404.95;105621;1279;22550;-84
2022/06/10 06:09:01;;;;;;;9.10;4.40;;;;;;;17.87;70.18;99405.82;105756;1280;24393;-81
2022/06/10 06:11:54;;;;;;;9.60;5.40;;;;;;;17.88;70.20;99407.64;105788;1279;25579;-83
2022/06/10 06:15:11;;;;;;;;;;;;;;;;;;;;;
2022/06/10 06:18:24;;;;;;;12.30;5.50;;;;;;;18.07;70.14;99409.58;105737;1279;25314;-84
2022/06/10 06:21:53;;;;;;;12.90;5.20;;;;;;;18.21;70.25;99411.00;105516;1279;24339;-86
2022/06/10 06:24:44;;;;;;;10.00;5.20;;;;;;;18.42;69.94;99408.10;105853;1276;23181;-85
2022/06/10 06:27:49;;;;;;;;;;;;;;;;;;;;;
2022/06/10 06:30:53;;;;;;;11.90;5.40;;;;;;;18.61;70.24;99414.51;105946;1275;22535;-82
2022/06/10 06:33:33;;;;;;;8.10;4.60;;;;;;;18.83;70.00;99414.91;106042;1276;25461;-82
2022/06/10 06:37:01;;;;;;;;;;;;;;;;;;;;;
2022/06/10 06:40:03;;;;;;;;;;;;;;;;;;;;;
2022/06/10 06:43:19;;;;;;;9.50;5.40;;;;;;;18.95;69.68;99431.58;106031;1276;22603;-80
2022/06/10 06:46:04;;;;;;;9.90;5.40;;;;;;;18.86;69.18;99433.29;105996;1281;22647;-80
2022/06/10 06:48:57;;;;;;;10.20;5.20;;;;;;;18.91;69.52;99437.75;105555;1282;25382;-81
2022/06/10 06:51:40;;;;;;;9.40;5.80;;;;;;;19.00;69.28;99444.07;105517;1283;24274;-82
2022/06/10 06:54:53;;;;;;;10.80;5.60;;;;;;;19.01;69.18;99445.55;105507;1282;25615;-85
2022/06/10 06:58:09;;;;;;;;;;;;;;;;;;;;;
2022/06/10 07:02:10;;;;;;;11.10;4.80;;;;;;;19.11;69.31;99453.02;105706;1282;22547;-82
2022/06/10 07:04:52;;;;;;;10.60;5.20;;;;;;;19.06;69.19;99454.35;104918;1287;23919;-82
2022/06/10 07:07:48;;;;;;;;;;;;;;;;;;;;;
2022/06/10 07:10:30;;;;;;;10.00;5.40;;;;;;;19.11;69.07;99461.77;104574;1288;24036;-78
2022/06/10 07:13:04;;;;;;;8.70;4.80;;;;;;;19.12;69.15;99461.56;104531;1288;25295;-81
2022/06/10 07:15:58;;;;;;;9.30;4.50;;;;;;;19.15;69.23;99465.54;104524;1289;24301;-84
2022/06/10 07:18:50;;;;;;;10.30;5.90;;;;;;;19.16;68.78;99465.23;104810;1288;22582;-84
2022/06/10 07:21:40;;;;;;;9.40;5.40;;;;;;;19.30;69.35;99463.17;104662;1288;22570;-88
2022/06/10 07:25:10;;;;;;;8.70;5.10;;;;;;;19.61;69.54;99466.10;105206;1282;25216;-82
2022/06/10 07:27:55;;;;;;;;;;;;;;;;;;;;;
2022/06/10 07:31:34;;;;;;;8.90;3.90;;;;;;;20.00;68.43;99475.10;105240;1285;25454;-82
2022/06/10 07:34:50;;;;;;;10.60;4.40;;;;;;;19.98;68.85;99481.84;105323;1285;24256;-85
2022/06/10 07:38:16;;;;;;;10.20;3.50;;;;;;;19.87;68.19;99483.89;104981;1287;22559;-81
2022/06/10 07:44:20;;;;;;;;;;;;;;;;;;;;;
2022/06/10 07:47:51;;;;;;;;;;;;;;;;;;;;;
2022/06/10 07:50:44;;;;;;;7.60;2.90;;;;;;;19.94;67.66;99488.72;104858;1288;24285;-86
2022/06/10 07:53:24;;;;;;;7.80;3.10;;;;;;;20.26;67.98;99487.13;104855;1288;25372;-79
2022/06/10 07:56:24;;;;;;;;;;;;;;;;;;;;;
2022/06/10 07:59:17;;;;;;;5.70;2.70;;;;;;;20.46;67.15;99485.96;104849;1288;25540;-83
2022/06/10 08:02:03;;;;;;;7.20;2.60;;;;;;;20.58;67.12;99480.59;104540;1288;22635;-86
2022/06/10 08:04:47;;;;;;;6.20;2.70;;;;;;;20.57;67.25;99485.95;104936;1285;24319;-83
2022/06/10 08:07:34;;;;;;;8.40;3.10;;;;;;;20.67;67.22;99485.20;105375;1285;22494;-85
2022/06/10 08:10:17;;;;;;;6.10;3.00;;;;;;;21.02;67.25;99475.35;105472;1285;23915;-83
2022/06/10 08:12:45;;;;;;;9.60;3.20;;;;;;;21.41;67.25;99468.45;105426;1285;22749;-82
2022/06/10 08:15:21;;;;;;;8.10;3.40;;;;;;;21.62;67.05;99473.09;105470;1284;22716;-84
2022/06/10 08:17:57;;;;;;;6.70;3.00;;;;;;;21.97;66.86;99476.81;105216;1285;22714;-83
2022/06/10 08:23:42;;;;;;;9.70;2.70;;;;;;;21.91;65.57;99475.64;106171;1274;22557;-83
2022/06/10 08:26:20;;;;;;;5.70;2.50;;;;;;;21.87;65.89;99472.48;106064;1274;22547;-85
2022/06/10 08:28:50;;;;;;;7.10;2.30;;;;;;;21.99;65.96;99473.48;105997;1274;23891;-80
2022/06/10 08:31:19;;;;;;;8.10;2.70;;;;;;;22.24;66.17;99470.17;106031;1274;22594;-86
2022/06/10 08:33:57;;;;;;;5.90;2.30;;;;;;;22.53;65.82;99467.74;106141;1274;22535;-86
2022/06/10 08:36:35;;;;;;;3.80;1.60;;;;;;;22.77;65.47;99463.84;105977;1274;24253;-81
2022/06/10 08:39:02;;;;;;;6.30;1.60;;;;;;;22.89;64.98;99466.36;105945;1274;22556;-82
2022/06/10 08:42:04;;;;;;;5.10;1.50;;;;;;;23.13;64.99;99470.69;106033;1274;24450;-84
2022/06/10 08:44:50;;;;;;;5.00;1.20;;;;;;;23.35;64.80;99470.43;106303;1273;22538;-86
2022/06/10 08:47:58;;;;;;;5.10;1.10;;;;;;;23.36;64.08;99466.61;106114;1274;22842;-87
2022/06/10 08:50:56;;;;;;;3.10;1.10;;;;;;;23.34;64.00;99471.08;106154;1273;22836;-81
2022/06/10 08:53:40;;;;;;;3.30;1.30;;;;;;;23.44;63.52;99477.68;105928;1274;24316;-78
2022/06/10 08:56:43;;;;;;;4.10;1.20;;;;;;;23.44;63.33;99484.52;105995;1274;24247;-79
2022/06/10 08:59:31;;;;;;;6.40;1.20;;;;;;;23.47;62.89;99489.52;105927;1273;22763;-82
2022/06/10 09:02:12;;;;;;;4.70;1.50;;;;;;;23.54;63.30;99491.02;106280;1273;22634;-83
2022/06/10 09:05:06;;;;;;;4.20;1.20;;;;;;;23.68;62.90;99490.52;106046;1274;23196;-85
2022/06/10 09:07:45;;;;;;;4.50;1.30;;;;;;;23.80;63.04;99495.09;105985;1274;22736;-80
2022/06/10 09:10:28;;;;;;;4.30;1.30;;;;;;;23.92;62.25;99493.73;106070;1274;25506;-79
2022/06/10 09:13:10;;;;;;;3.50;1.10;;;;;;;23.84;61.94;99495.23;105956;1274;22556;-81
2022/06/10 09:16:03;;;;;;;3.30;1.20;;;;;;;23.87;62.34;99500.38;106007;1274;24208;-79
2022/06/10 09:18:57;;;;;;;4.10;1.20;;;;;;;24.00;61.55;99497.68;106051;1275;25379;-79
2022/06/10 09:21:46;;;;;;;3.70;1.20;;;;;;;23.89;61.63;99504.27;105946;1276;22697;-85
2022/06/10 09:24:32;;;;;;;5.40;1.20;;;;;;;23.88;61.97;99509.45;105933;1273;22706;-82
2022/06/10 09:27:08;;;;;;;3.40;1.20;;;;;;;24.01;61.71;99507.90;106025;1274;25213;-80
2022/06/10 09:29:41;;;;;;;5.00;1.20;;;;;;;24.11;61.25;99510.05;105934;1274;24291;-83
2022/06/10 09:32:54;;;;;;;2.70;1.00;;;;;;;23.88;61.02;99508.61;105995;1274;22534;-81
2022/06/10 09:35:53;;;;;;;3.90;1.20;;;;;;;23.68;61.08;99509.96;106214;1273;22551;-86
2022/06/10 09:38:45;;;;;;;4.40;1.30;;;;;;;23.61;60.82;99510.82;105991;1274;22560;-85
2022/06/10 09:41:59;;;;;;;5.50;1.20;;;;;;;23.80;61.11;99508.81;105995;1274;24263;-84
2022/06/10 09:45:03;;;;;;;4.10;1.20;;;;;;;23.70;59.92;99509.14;105810;1275;22717;-80
2022/06/10 09:48:01;;;;;;;3.60;1.10;;;;;;;23.53;60.27;99514.30;105822;1275;25308;-80
2022/06/10 09:50:50;;;;;;;3.60;1.00;;;;;;;23.67;60.31;99510.41;106023;1274;22556;-78
2022/06/10 09:53:51;;;;;;;4.20;1.10;;;;;;;23.85;60.02;99513.34;105860;1273;26484;-82
2022/06/10 09:57:07;;;;;;;3.90;1.20;;;;;;;23.94;59.57;99513.64;105889;1275;22608;-82
2022/06/10 10:00:02;;;;;;;4.70;1.00;;;;;;;24.06;59.43;99513.77;106008;1274;26500;-81
2022/06/10 10:03:28;;;;;;;3.00;1.00;;;;;;;23.91;59.27;99513.02;106285;1273;22981;-84
2022/06/10 10:06:39;;;;;;;3.30;1.10;;;;;;;23.88;59.21;99514.07;106335;1273;23890;-81
2022/06/10 10:09:44;;;;;;;3.90;0.90;;;;;;;23.94;59.34;99510.52;106309;1273;22655;-82
2022/06/10 10:12:24;;;;;;;4.80;1.20;;;;;;;23.66;58.78;99509.25;106296;1273;24416;-77
2022/06/10 10:15:16;;;;;;;3.40;1.10;;;;;;;23.39;58.79;99511.21;105996;1274;25297;-77
2022/06/10 10:18:03;;;;;;;5.70;1.00;;;;;;;23.36;59.00;99515.77;106270;1274;22534;-81
2022/06/10 10:20:48;;;;;;;4.70;1.10;;;;;;;23.47;58.64;99514.96;106238;1273;22557;-85
2022/06/10 10:24:03;;;;;;;3.70;0.80;;;;;;;23.60;59.02;99516.35;106007;1274;22560;-79
2022/06/10 10:26:37;;;;;;;3.10;1.10;;;;;;;23.75;58.69;99514.77;105995;1277;22558;-86
2022/06/10 10:29:27;;;;;;;4.00;0.90;;;;;;;24.06;59.02;99515.19;106022;1274;25267;-79
2022/06/10 10:32:16;;;;;;;3.50;1.00;;;;;;;24.44;58.51;99512.71;106049;1274;24257;-79
2022/06/10 10:34:50;;;;;;;3.20;1.10;;;;;;;24.63;57.48;99514.44;105946;1274;26688;-77
2022/06/10 10:37:57;;;;;;;4.90;1.00;;;;;;;24.57;56.73;99517.23;106064;1274;24437;-81
2022/06/10 10:40:36;;;;;;;3.10;0.90;;;;;;;24.46;56.97;99515.31;106093;1274;24256;-79
2022/06/10 10:43:16;;;;;;;8.60;1.20;;;;;;;24.25;57.18;99514.66;105929;1276;24054;-80
2022/06/10 10:46:06;;;;;;;4.90;0.80;;;;;;;24.05;57.53;99519.08;106280;1274;25303;-78
2022/06/10 10:48:48;;;;;;;3.40;1.10;;;;;;;24.15;57.09;99518.64;105929;1274;22547;-83
2022/06/10 10:51:47;;;;;;;4.20;1.10;;;;;;;24.51;57.39;99519.83;105983;1274;25446;-79
2022/06/10 10:54:35;;;;;;;1.90;0.60;;;;;;;24.87;56.92;99513.44;106372;1274;23056;-80
2022/06/10 10:57:21;;;;;;;3.50;0.80;;;;;;;24.93;56.72;99507.92;106068;1274;22607;-85
2022/06/10 11:00:03;;;;;;;3.40;0.90;;;;;;;24.75;56.16;99509.30;105824;1277;24264;-82
2022/06/10 11:02:38;;;;;;;3.30;0.80;;;;;;;24.77;56.03;99512.48;106254;1273;24205;-86
2022/06/10 11:05:48;;;;;;;2.30;0.60;;;;;;;24.80;56.06;99512.27;105931;1275;24298;-79
2022/06/10 11:08:54;;;;;;;4.20;0.80;;;;;;;24.68;55.23;99508.09;105804;1274;22570;-81
2022/06/10 11:12:25;;;;;;;;;;;;;;;;;;;;;
2022/06/10 11:15:26;;;;;;;3.30;1.00;;;;;;;24.89;55.61;99504.42;105598;1280;22582;-81
2022/06/10 11:18:02;;;;;;;5.20;0.90;;;;;;;25.00;55.06;99507.35;105527;1280;25207;-81
2022/06/10 11:21:02;;;;;;;4.10;1.00;;;;;;;24.81;55.16;99510.83;105804;1279;24079;-81
2022/06/10 11:23:56;;;;;;;3.60;0.70;;;;;;;24.75;55.15;99504.99;105721;1280;25986;-80
2022/06/10 11:26:58;;;;;;;3.00;0.80;;;;;;;25.06;55.49;99505.33;105497;1282;22548;-81
2022/06/10 11:30:15;;;;;;;4.80;0.80;;;;;;;25.23;54.41;99499.80;105298;1281;26074;-80
2022/06/10 11:32:49;;;;;;;3.40;0.90;;;;;;;25.09;54.51;99496.05;105444;1284;22577;-82
2022/06/10 11:35:38;;;;;;;2.80;0.90;;;;;;;25.26;54.50;99497.48;104888;1287;25250;-79
2022/06/10 11:38:26;;;;;;;4.40;0.90;;;;;;;25.36;53.80;99501.52;104905;1285;25311;-81
2022/06/10 11:42:13;;;;;;;3.10;0.90;;;;;;;25.12;53.92;99496.86;104756;1287;25547;-79
2022/06/10 11:45:45;;;;;;;4.00;0.80;;;;;;;25.26;53.87;99500.06;103450;1309;545119;-83
2022/06/10 11:48:57;;;;;;;;;;;;;;;;;;;;;
2022/06/10 11:51:55;;;;;;;2.40;0.90;;;;;;;25.56;52.97;99486.77;105920;1277;22556;-77
2022/06/10 11:54:52;;;;;;;3.70;0.90;;;;;;;25.38;52.96;99485.29;105915;1277;22645;-85
2022/06/10 12:00:44;;;;;;;3.50;0.70;;;;;;;25.22;53.15;99484.04;106199;1276;22553;-77
2022/06/10 12:03:25;;;;;;;4.80;0.70;;;;;;;25.39;52.34;99482.95;106011;1278;25486;-79
2022/06/10 12:07:02;;;;;;;;;;;;;;;;;;;;;
2022/06/10 12:10:35;;;;;;;3.20;1.00;;;;;;;25.34;51.77;99482.75;106306;1276;22604;-80
2022/06/10 12:13:26;;;;;;;2.60;0.60;;;;;;;25.31;51.96;99481.94;106339;1273;22537;-82
2022/06/10 12:16:05;;;;;;;3.40;0.70;;;;;;;25.20;51.36;99479.55;106384;1273;23776;-82
2022/06/10 12:18:45;;;;;;;5.20;0.80;;;;;;;25.10;51.81;99472.97;106297;1273;25436;-84
2022/06/10 12:21:28;;;;;;;4.30;0.80;;;;;;;25.12;51.81;99467.44;106159;1274;25476;-82
2022/06/10 12:23:55;;;;;;;2.90;0.90;;;;;;;25.11;51.31;99469.27;106222;1273;24329;-79
2022/06/10 12:26:37;;;;;;;4.80;1.20;;;;;;;24.90;51.30;99473.23;105947;1273;25360;-80
2022/06/10 12:29:15;;;;;;;2.90;0.70;;;;;;;24.67;51.06;99473.45;106118;1273;25442;-80
2022/06/10 12:32:37;;;;;;;3.10;0.70;;;;;;;24.80;51.25;99477.23;106190;1274;22832;-81
2022/06/10 12:35:28;;;;;;;3.40;0.80;;;;;;;24.92;50.80;99477.95;106228;1273;22684;-85
2022/06/10 12:38:30;;;;;;;4.30;0.80;;;;;;;24.89;50.78;99476.04;106185;1275;22726;-84
2022/06/10 12:42:07;;;;;;;3.70;0.70;;;;;;;25.02;50.66;99468.36;106202;1274;24286;-83
2022/06/10 12:44:59;;;;;;;2.10;0.80;;;;;;;25.03;49.91;99470.36;105757;1279;22698;-86
2022/06/10 12:47:40;;;;;;;4.50;0.80;;;;;;;25.00;50.02;99472.23;105765;1280;22542;-82
2022/06/10 12:50:23;;;;;;;3.90;0.70;;;;;;;24.94;50.25;99468.60;105647;1279;24193;-78
2022/06/10 12:53:19;;;;;;;3.10;0.80;;;;;;;24.88;49.53;99473.37;105751;1279;22565;-82
2022/06/10 12:55:54;;;;;;;5.30;0.70;;;;;;;24.80;49.81;99473.83;105810;1280;25344;-82
2022/06/10 12:58:53;;;;;;;5.40;0.80;;;;;;;24.95;50.11;99466.22;105847;1279;22716;-87
2022/06/10 13:02:14;;;;;;;;;;;;;;;;;;;;;
2022/06/10 13:05:33;;;;;;;5.70;0.80;;;;;;;25.32;49.93;99461.73;105844;1279;22544;-83
2022/06/10 13:08:45;;;;;;;5.00;0.80;;;;;;;25.44;49.45;99462.59;105804;1279;22715;-85
2022/06/10 13:12:02;;;;;;;3.30;0.80;;;;;;;25.45;49.20;99461.25;105761;1279;24410;-81
2022/06/10 13:14:36;;;;;;;3.60;0.80;;;;;;;25.52;49.27;99462.11;105755;1280;22675;-84
2022/06/10 13:17:24;;;;;;;5.00;0.90;;;;;;;25.62;49.11;99466.62;105845;1279;22547;-84
2022/06/10 13:20:26;;;;;;;3.10;0.90;;;;;;;25.70;49.00;99466.09;105863;1273;22851;-82
2022/06/10 13:23:23;;;;;;;4.50;0.90;;;;;;;25.80;48.77;99465.82;106109;1273;22548;-83
2022/06/10 13:26:36;;;;;;;3.60;0.80;;;;;;;25.72;48.41;99464.61;106082;1273;23123;-82
2022/06/10 13:29:24;;;;;;;4.70;0.80;;;;;;;25.73;48.58;99460.61;106100;1276;23159;-85
2022/06/10 13:31:57;;;;;;;4.20;0.90;;;;;;;25.90;48.69;99460.59;106163;1274;24265;-79
2022/06/10 13:34:34;;;;;;;4.10;1.00;;;;;;;26.14;48.47;99466.54;106159;1274;23066;-84
2022/06/10 13:37:42;;;;;;;3.00;0.70;;;;;;;26.22;48.20;99462.07;106456;1274;23351;-78
2022/06/10 13:40:33;;;;;;;3.60;0.80;;;;;;;26.05;48.12;99461.30;106424;1273;23069;-83
2022/06/10 13:43:14;;;;;;;5.20;0.90;;;;;;;26.16;48.30;99459.16;106403;1273;23484;-83
2022/06/10 13:45:53;;;;;;;6.20;1.10;;;;;;;26.24;47.30;99459.23;106116;1274;22837;-80
2022/06/10 13:48:53;;;;;;;2.90;0.90;;;;;;;25.98;47.35;99455.09;106483;1274;22701;-81
2022/06/10 13:51:42;;;;;;;4.90;0.90;;;;;;;25.86;47.54;99457.37;106368;1273;24177;-81
2022/06/10 13:54:46;;;;;;;2.50;0.80;;;;;;;25.75;47.21;99453.20;106175;1274;24706;-86
2022/06/10 13:58:36;;;;;;;;;;;;;;;;;;;;;
2022/06/10 14:01:26;;;;;;;4.60;1.00;;;;;;;25.76;47.22;99458.13;106162;1274;22654;-80
2022/06/10 14:04:38;;;;;;;4.40;1.00;;;;;;;25.87;47.12;99454.59;106095;1273;22571;-82
2022/06/10 14:07:40;;;;;;;;;;;;;;;;;;;;;
2022/06/10 14:10:51;;;;;;;4.50;0.70;;;;;;;26.28;46.65;99457.38;106120;1273;22540;-83
2022/06/10 14:14:08;;;;;;;;;;;;;;;;;;;;;
2022/06/10 14:17:39;;;;;;;4.20;0.80;;;;;;;25.73;46.53;99454.70;106094;1273;24061;-84
2022/06/10 14:20:15;;;;;;;7.00;1.00;;;;;;;25.77;46.61;99450.95;106326;1273;22547;-78
2022/06/10 14:22:58;;;;;;;5.60;0.70;;;;;;;25.89;46.53;99451.29;106181;1274;23992;-83
2022/06/10 14:25:24;;;;;;;6.80;1.00;;;;;;;26.06;45.85;99456.96;106075;1274;24285;-82
2022/06/10 14:28:16;;;;;;;2.20;0.60;;;;;;;25.99;46.10;99453.04;106085;1273;22599;-82
2022/06/10 14:30:57;;;;;;;5.30;0.90;;;;;;;26.03;46.17;99447.92;106056;1274;22613;-79
2022/06/10 14:33:46;;;;;;;4.00;1.00;;;;;;;26.04;45.70;99445.70;106111;1273;23921;-83
2022/06/10 14:36:21;;;;;;;2.90;0.70;;;;;;;26.07;45.05;99443.11;106080;1274;22812;-79
2022/06/10 14:39:11;;;;;;;3.00;0.80;;;;;;;25.98;45.32;99442.71;105960;1274;22800;-79
2022/06/10 14:42:00;;;;;;;5.60;0.90;;;;;;;25.82;45.03;99439.86;106092;1273;25436;-81
2022/06/10 14:44:50;;;;;;;4.20;0.90;;;;;;;25.58;45.27;99439.11;106042;1274;22626;-84
2022/06/10 14:47:24;;;;;;;3.40;1.10;;;;;;;25.75;45.16;99438.45;106034;1274;24418;-83
2022/06/10 14:50:11;;;;;;;3.20;0.80;;;;;;;25.74;44.83;99436.85;105919;1273;25408;-81
2022/06/10 14:52:45;;;;;;;7.60;2.00;;;;;;;25.70;44.90;99434.90;106055;1274;25461;-78
2022/06/10 14:55:19;;;;;;;5.40;0.80;;;;;;;25.72;44.89;99431.66;106178;1273;22609;-79
2022/06/10 14:58:02;;;;;;;5.10;1.00;;;;;;;25.72;44.98;99430.40;106718;1273;22617;-84
2022/06/10 15:01:17;;;;;;;3.80;0.80;;;;;;;25.96;45.09;99431.33;106489;1274;25579;-85
2022/06/10 15:03:54;;;;;;;4.20;0.80;;;;;;;26.09;44.66;99428.05;106240;1273;25473;-77
2022/06/10 15:06:59;;;;;;;7.20;1.10;;;;;;;26.01;44.06;99429.14;106189;1275;22553;-82
2022/06/10 15:13:40;;;;;;;3.70;0.90;;;;;;;25.99;44.65;99427.60;106149;1281;22569;-80
2022/06/10 15:16:53;;;;;;;4.20;0.80;;;;;;;26.23;44.08;99425.39;105512;1282;22554;-82
2022/06/10 15:19:28;;;;;;;3.50;0.80;;;;;;;26.15;43.98;99428.42;105513;1282;22737;-85
2022/06/10 15:22:40;;;;;;;4.30;0.90;;;;;;;26.30;43.99;99429.59;105706;1282;22546;-85
2022/06/10 15:25:39;;;;;;;3.80;0.80;;;;;;;26.73;43.85;99423.45;105421;1282;25361;-83
2022/06/10 15:28:41;;;;;;;;;;;;;;;;;;;;;
2022/06/10 15:31:14;;;;;;;4.80;0.90;;;;;;;27.49;43.09;99417.36;105575;1282;22541;-82
2022/06/10 15:33:41;;;;;;;4.10;1.00;;;;;;;27.54;42.86;99421.27;105613;1281;22555;-80
2022/06/10 15:43:23;;;;;;;;;;;;;;;;;;;;;
2022/06/10 15:46:49;;;;;;;;;;;;;;;;;;;;;
2022/06/10 15:49:44;;;;;;;4.70;0.70;;;;;;;29.27;41.78;99416.36;105901;1276;22645;-84